Sainte-Claire, Canada
Current Conditions -  °F | °C
As of 9:00 AM on Monday 20 Oct 2014 (Local Time) from CYQB Reporting Station
Broken Clouds Broken Clouds  
Wind Chill: 30°   Ceiling: 3900
Heat Index: 37°   Visibility: 30mi
Dew Point: 28°   Wind: 12mph
Humidity: 70%   Direction: 250°WSW
Pressure: 29.92"   Gusts: NA
Location:  46.6°N, 70.85°W
Report Text: CYQB 201300Z 25010KT 30SM FEW015 BKN039 BKN080 03/M02 A2992 RMK SF1SC5AC1 SLP136
Loading
Personal Weather Stations






























Interactive Weather Map
Tropical Storm Tracking
New forecast layout! Learn more

10-Day Weather Forecast

Advertisements
Track Severe Weather on mobile